sensor_id;sensor_type;location;lat;lon;timestamp;P1;durP1;ratioP1;P2;durP2;ratioP2
15112;SDS011;7657;50.140;7.076;2022-10-31T00:00:13;6.05;;;3.83;;
15112;SDS011;7657;50.140;7.076;2022-10-31T00:02:40;6.43;;;3.80;;
15112;SDS011;7657;50.140;7.076;2022-10-31T00:05:07;7.57;;;4.07;;
15112;SDS011;7657;50.140;7.076;2022-10-31T00:07:36;8.18;;;3.78;;
15112;SDS011;7657;50.140;7.076;2022-10-31T00:10:03;7.57;;;4.55;;
15112;SDS011;7657;50.140;7.076;2022-10-31T00:12:31;6.60;;;4.13;;
15112;SDS011;7657;50.140;7.076;2022-10-31T00:14:58;8.05;;;4.18;;
15112;SDS011;7657;50.140;7.076;2022-10-31T00:17:24;8.15;;;4.30;;
15112;SDS011;7657;50.140;7.076;2022-10-31T00:19:51;7.28;;;4.03;;
15112;SDS011;7657;50.140;7.076;2022-10-31T00:22:18;9.82;;;4.10;;
15112;SDS011;7657;50.140;7.076;2022-10-31T00:24:46;6.70;;;4.13;;
15112;SDS011;7657;50.140;7.076;2022-10-31T00:27:13;10.43;;;4.18;;
15112;SDS011;7657;50.140;7.076;2022-10-31T00:29:40;7.88;;;4.18;;
15112;SDS011;7657;50.140;7.076;2022-10-31T00:32:07;10.43;;;4.05;;
15112;SDS011;7657;50.140;7.076;2022-10-31T00:34:34;8.85;;;3.95;;
15112;SDS011;7657;50.140;7.076;2022-10-31T00:37:01;6.82;;;4.00;;
15112;SDS011;7657;50.140;7.076;2022-10-31T00:39:27;6.65;;;4.10;;
15112;SDS011;7657;50.140;7.076;2022-10-31T00:41:56;9.35;;;3.83;;
15112;SDS011;7657;50.140;7.076;2022-10-31T00:44:23;6.65;;;3.58;;
15112;SDS011;7657;50.140;7.076;2022-10-31T00:46:49;7.40;;;3.88;;
15112;SDS011;7657;50.140;7.076;2022-10-31T00:49:16;9.57;;;4.00;;
15112;SDS011;7657;50.140;7.076;2022-10-31T00:51:43;4.57;;;3.10;;
15112;SDS011;7657;50.140;7.076;2022-10-31T00:54:10;8.82;;;4.22;;
15112;SDS011;7657;50.140;7.076;2022-10-31T00:56:37;7.30;;;4.50;;
15112;SDS011;7657;50.140;7.076;2022-10-31T00:59:05;7.15;;;4.32;;
15112;SDS011;7657;50.140;7.076;2022-10-31T01:01:32;10.07;;;4.68;;
15112;SDS011;7657;50.140;7.076;2022-10-31T01:03:59;11.32;;;4.43;;
15112;SDS011;7657;50.140;7.076;2022-10-31T01:06:26;8.27;;;3.97;;
15112;SDS011;7657;50.140;7.076;2022-10-31T01:08:52;10.48;;;3.90;;
15112;SDS011;7657;50.140;7.076;2022-10-31T01:11:20;6.05;;;3.88;;
15112;SDS011;7657;50.140;7.076;2022-10-31T01:13:49;6.75;;;4.25;;
15112;SDS011;7657;50.140;7.076;2022-10-31T01:16:19;7.43;;;3.97;;
15112;SDS011;7657;50.140;7.076;2022-10-31T01:18:47;5.93;;;4.32;;
15112;SDS011;7657;50.140;7.076;2022-10-31T01:21:15;7.72;;;3.80;;
15112;SDS011;7657;50.140;7.076;2022-10-31T01:23:43;7.28;;;3.78;;
15112;SDS011;7657;50.140;7.076;2022-10-31T01:26:11;6.75;;;3.67;;
15112;SDS011;7657;50.140;7.076;2022-10-31T01:28:43;6.22;;;3.63;;
15112;SDS011;7657;50.140;7.076;2022-10-31T01:31:12;6.85;;;3.92;;
15112;SDS011;7657;50.140;7.076;2022-10-31T01:33:40;8.07;;;4.18;;
15112;SDS011;7657;50.140;7.076;2022-10-31T01:36:11;8.35;;;4.20;;
15112;SDS011;7657;50.140;7.076;2022-10-31T01:38:40;7.03;;;3.88;;
15112;SDS011;7657;50.140;7.076;2022-10-31T01:41:07;10.38;;;4.00;;
15112;SDS011;7657;50.140;7.076;2022-10-31T01:43:41;8.18;;;4.40;;
15112;SDS011;7657;50.140;7.076;2022-10-31T01:46:13;6.13;;;3.47;;
15112;SDS011;7657;50.140;7.076;2022-10-31T01:48:43;6.85;;;4.00;;
15112;SDS011;7657;50.140;7.076;2022-10-31T01:51:10;8.55;;;4.40;;
15112;SDS011;7657;50.140;7.076;2022-10-31T01:53:39;5.40;;;3.90;;
15112;SDS011;7657;50.140;7.076;2022-10-31T01:56:07;5.97;;;4.07;;
15112;SDS011;7657;50.140;7.076;2022-10-31T01:58:34;7.60;;;4.07;;
15112;SDS011;7657;50.140;7.076;2022-10-31T02:01:02;10.38;;;4.38;;
15112;SDS011;7657;50.140;7.076;2022-10-31T02:03:29;10.63;;;4.30;;
15112;SDS011;7657;50.140;7.076;2022-10-31T02:05:58;7.95;;;4.55;;
15112;SDS011;7657;50.140;7.076;2022-10-31T02:08:27;6.30;;;4.03;;
15112;SDS011;7657;50.140;7.076;2022-10-31T02:10:55;6.90;;;4.18;;
15112;SDS011;7657;50.140;7.076;2022-10-31T02:13:23;7.72;;;4.05;;
15112;SDS011;7657;50.140;7.076;2022-10-31T02:15:52;6.85;;;3.95;;
15112;SDS011;7657;50.140;7.076;2022-10-31T02:18:20;7.60;;;4.20;;
15112;SDS011;7657;50.140;7.076;2022-10-31T02:20:51;6.47;;;4.03;;
15112;SDS011;7657;50.140;7.076;2022-10-31T02:23:45;7.38;;;4.00;;
15112;SDS011;7657;50.140;7.076;2022-10-31T02:26:37;9.00;;;3.80;;
15112;SDS011;7657;50.140;7.076;2022-10-31T02:29:32;9.23;;;4.20;;
15112;SDS011;7657;50.140;7.076;2022-10-31T02:32:24;7.03;;;4.15;;
15112;SDS011;7657;50.140;7.076;2022-10-31T02:34:57;6.78;;;3.85;;
15112;SDS011;7657;50.140;7.076;2022-10-31T02:37:29;8.70;;;4.05;;
15112;SDS011;7657;50.140;7.076;2022-10-31T02:40:05;9.65;;;4.30;;
15112;SDS011;7657;50.140;7.076;2022-10-31T02:42:41;11.80;;;4.30;;
15112;SDS011;7657;50.140;7.076;2022-10-31T02:45:18;6.75;;;3.63;;
15112;SDS011;7657;50.140;7.076;2022-10-31T02:47:53;7.50;;;3.70;;
15112;SDS011;7657;50.140;7.076;2022-10-31T02:50:26;8.90;;;4.22;;
15112;SDS011;7657;50.140;7.076;2022-10-31T02:52:56;6.80;;;3.88;;
15112;SDS011;7657;50.140;7.076;2022-10-31T02:55:44;9.80;;;4.18;;
15112;SDS011;7657;50.140;7.076;2022-10-31T02:58:17;7.20;;;3.83;;
15112;SDS011;7657;50.140;7.076;2022-10-31T03:00:51;9.40;;;4.30;;
15112;SDS011;7657;50.140;7.076;2022-10-31T03:03:35;8.40;;;4.43;;
15112;SDS011;7657;50.140;7.076;2022-10-31T03:06:08;7.97;;;3.78;;
15112;SDS011;7657;50.140;7.076;2022-10-31T03:08:43;8.20;;;3.60;;
15112;SDS011;7657;50.140;7.076;2022-10-31T03:11:16;8.35;;;3.92;;
15112;SDS011;7657;50.140;7.076;2022-10-31T03:13:48;7.57;;;3.97;;
15112;SDS011;7657;50.140;7.076;2022-10-31T03:16:18;6.53;;;3.67;;
15112;SDS011;7657;50.140;7.076;2022-10-31T03:18:53;7.05;;;3.60;;
15112;SDS011;7657;50.140;7.076;2022-10-31T03:21:25;10.63;;;3.67;;
15112;SDS011;7657;50.140;7.076;2022-10-31T03:23:55;9.68;;;3.97;;
15112;SDS011;7657;50.140;7.076;2022-10-31T03:26:23;8.07;;;3.83;;
15112;SDS011;7657;50.140;7.076;2022-10-31T03:28:53;8.10;;;3.75;;
15112;SDS011;7657;50.140;7.076;2022-10-31T03:31:24;8.98;;;3.83;;
15112;SDS011;7657;50.140;7.076;2022-10-31T03:33:57;8.05;;;4.00;;
15112;SDS011;7657;50.140;7.076;2022-10-31T03:36:26;11.77;;;4.10;;
15112;SDS011;7657;50.140;7.076;2022-10-31T03:38:56;10.63;;;3.60;;
15112;SDS011;7657;50.140;7.076;2022-10-31T03:41:25;12.18;;;4.20;;
15112;SDS011;7657;50.140;7.076;2022-10-31T03:43:58;8.18;;;3.60;;
15112;SDS011;7657;50.140;7.076;2022-10-31T03:46:29;7.72;;;4.00;;
15112;SDS011;7657;50.140;7.076;2022-10-31T03:48:57;8.77;;;3.83;;
15112;SDS011;7657;50.140;7.076;2022-10-31T03:51:26;8.15;;;3.65;;
15112;SDS011;7657;50.140;7.076;2022-10-31T03:54:01;9.40;;;3.58;;
15112;SDS011;7657;50.140;7.076;2022-10-31T03:56:35;9.63;;;3.75;;
15112;SDS011;7657;50.140;7.076;2022-10-31T03:59:04;9.40;;;4.03;;
15112;SDS011;7657;50.140;7.076;2022-10-31T04:01:36;9.10;;;3.63;;
15112;SDS011;7657;50.140;7.076;2022-10-31T04:04:08;8.73;;;3.70;;
15112;SDS011;7657;50.140;7.076;2022-10-31T04:06:36;6.80;;;4.00;;
15112;SDS011;7657;50.140;7.076;2022-10-31T04:09:06;6.90;;;3.80;;
15112;SDS011;7657;50.140;7.076;2022-10-31T04:11:36;8.27;;;3.78;;
15112;SDS011;7657;50.140;7.076;2022-10-31T04:14:11;10.95;;;3.85;;
15112;SDS011;7657;50.140;7.076;2022-10-31T04:16:38;8.25;;;3.92;;
15112;SDS011;7657;50.140;7.076;2022-10-31T04:19:08;8.77;;;3.92;;
15112;SDS011;7657;50.140;7.076;2022-10-31T04:21:35;10.15;;;4.00;;
15112;SDS011;7657;50.140;7.076;2022-10-31T04:24:02;8.23;;;3.80;;
15112;SDS011;7657;50.140;7.076;2022-10-31T04:26:30;6.63;;;3.97;;
15112;SDS011;7657;50.140;7.076;2022-10-31T04:28:57;5.82;;;3.45;;
15112;SDS011;7657;50.140;7.076;2022-10-31T04:31:24;12.60;;;3.70;;
15112;SDS011;7657;50.140;7.076;2022-10-31T04:33:50;8.50;;;3.65;;
15112;SDS011;7657;50.140;7.076;2022-10-31T04:36:19;7.22;;;4.15;;
15112;SDS011;7657;50.140;7.076;2022-10-31T04:38:46;10.43;;;3.92;;
15112;SDS011;7657;50.140;7.076;2022-10-31T04:41:13;10.00;;;4.43;;
15112;SDS011;7657;50.140;7.076;2022-10-31T04:43:40;8.65;;;4.25;;
15112;SDS011;7657;50.140;7.076;2022-10-31T04:46:07;6.57;;;4.05;;
15112;SDS011;7657;50.140;7.076;2022-10-31T04:48:34;9.27;;;4.60;;
15112;SDS011;7657;50.140;7.076;2022-10-31T04:51:01;8.00;;;4.07;;
15112;SDS011;7657;50.140;7.076;2022-10-31T04:53:30;11.70;;;4.40;;
15112;SDS011;7657;50.140;7.076;2022-10-31T04:55:57;9.23;;;4.60;;
15112;SDS011;7657;50.140;7.076;2022-10-31T04:58:24;4.82;;;3.42;;
15112;SDS011;7657;50.140;7.076;2022-10-31T05:00:51;6.97;;;4.00;;
15112;SDS011;7657;50.140;7.076;2022-10-31T05:03:19;7.25;;;3.55;;
15112;SDS011;7657;50.140;7.076;2022-10-31T05:05:46;9.23;;;4.20;;
15112;SDS011;7657;50.140;7.076;2022-10-31T05:08:13;10.63;;;3.85;;
15112;SDS011;7657;50.140;7.076;2022-10-31T05:10:41;9.80;;;4.40;;
15112;SDS011;7657;50.140;7.076;2022-10-31T05:13:08;8.57;;;4.53;;
15112;SDS011;7657;50.140;7.076;2022-10-31T05:15:35;8.40;;;4.45;;
15112;SDS011;7657;50.140;7.076;2022-10-31T05:18:02;8.02;;;3.95;;
15112;SDS011;7657;50.140;7.076;2022-10-31T05:20:29;10.57;;;4.28;;
15112;SDS011;7657;50.140;7.076;2022-10-31T05:22:57;6.80;;;4.25;;
15112;SDS011;7657;50.140;7.076;2022-10-31T05:25:25;7.95;;;3.85;;
15112;SDS011;7657;50.140;7.076;2022-10-31T05:27:54;9.70;;;4.18;;
15112;SDS011;7657;50.140;7.076;2022-10-31T05:30:23;8.27;;;3.70;;
15112;SDS011;7657;50.140;7.076;2022-10-31T05:32:51;9.75;;;4.07;;
15112;SDS011;7657;50.140;7.076;2022-10-31T05:35:20;7.78;;;3.95;;
15112;SDS011;7657;50.140;7.076;2022-10-31T05:37:48;12.27;;;3.78;;
15112;SDS011;7657;50.140;7.076;2022-10-31T05:40:15;9.48;;;4.10;;
15112;SDS011;7657;50.140;7.076;2022-10-31T05:42:44;9.70;;;3.40;;
15112;SDS011;7657;50.140;7.076;2022-10-31T05:45:13;7.68;;;3.15;;
15112;SDS011;7657;50.140;7.076;2022-10-31T05:47:41;9.60;;;3.70;;
15112;SDS011;7657;50.140;7.076;2022-10-31T05:50:09;8.05;;;3.60;;
15112;SDS011;7657;50.140;7.076;2022-10-31T05:52:36;6.38;;;3.63;;
15112;SDS011;7657;50.140;7.076;2022-10-31T05:55:03;6.57;;;3.75;;
15112;SDS011;7657;50.140;7.076;2022-10-31T05:57:31;8.38;;;4.10;;
15112;SDS011;7657;50.140;7.076;2022-10-31T05:59:59;9.68;;;3.85;;
15112;SDS011;7657;50.140;7.076;2022-10-31T06:02:28;8.98;;;3.70;;
15112;SDS011;7657;50.140;7.076;2022-10-31T06:04:59;8.57;;;3.85;;
15112;SDS011;7657;50.140;7.076;2022-10-31T06:07:26;6.50;;;3.80;;
15112;SDS011;7657;50.140;7.076;2022-10-31T06:09:53;5.82;;;3.53;;
15112;SDS011;7657;50.140;7.076;2022-10-31T06:12:20;6.45;;;4.00;;
15112;SDS011;7657;50.140;7.076;2022-10-31T06:14:47;10.77;;;3.80;;
15112;SDS011;7657;50.140;7.076;2022-10-31T06:17:14;6.20;;;3.55;;
15112;SDS011;7657;50.140;7.076;2022-10-31T06:19:42;7.97;;;3.70;;
15112;SDS011;7657;50.140;7.076;2022-10-31T06:22:09;6.78;;;3.55;;
15112;SDS011;7657;50.140;7.076;2022-10-31T06:24:37;8.07;;;4.00;;
15112;SDS011;7657;50.140;7.076;2022-10-31T06:27:04;5.93;;;4.10;;
15112;SDS011;7657;50.140;7.076;2022-10-31T06:29:31;9.80;;;4.63;;
15112;SDS011;7657;50.140;7.076;2022-10-31T06:31:58;9.32;;;4.88;;
15112;SDS011;7657;50.140;7.076;2022-10-31T06:34:25;10.88;;;4.38;;
15112;SDS011;7657;50.140;7.076;2022-10-31T06:36:53;8.75;;;3.88;;
15112;SDS011;7657;50.140;7.076;2022-10-31T06:39:20;8.95;;;4.13;;
15112;SDS011;7657;50.140;7.076;2022-10-31T06:41:47;9.07;;;4.40;;
15112;SDS011;7657;50.140;7.076;2022-10-31T06:44:14;6.05;;;3.58;;
15112;SDS011;7657;50.140;7.076;2022-10-31T06:46:41;7.20;;;4.43;;
15112;SDS011;7657;50.140;7.076;2022-10-31T06:49:08;7.40;;;3.97;;
15112;SDS011;7657;50.140;7.076;2022-10-31T06:51:35;9.70;;;4.60;;
15112;SDS011;7657;50.140;7.076;2022-10-31T06:54:03;10.00;;;4.50;;
15112;SDS011;7657;50.140;7.076;2022-10-31T06:56:30;12.55;;;4.97;;
15112;SDS011;7657;50.140;7.076;2022-10-31T06:58:57;7.95;;;5.28;;
15112;SDS011;7657;50.140;7.076;2022-10-31T07:01:24;6.72;;;4.45;;
15112;SDS011;7657;50.140;7.076;2022-10-31T07:03:51;7.43;;;4.65;;
15112;SDS011;7657;50.140;7.076;2022-10-31T07:06:18;10.43;;;4.82;;
15112;SDS011;7657;50.140;7.076;2022-10-31T07:08:44;11.52;;;5.05;;
15112;SDS011;7657;50.140;7.076;2022-10-31T07:11:13;9.05;;;4.97;;
15112;SDS011;7657;50.140;7.076;2022-10-31T07:13:39;11.27;;;5.30;;
15112;SDS011;7657;50.140;7.076;2022-10-31T07:16:06;11.35;;;6.97;;
15112;SDS011;7657;50.140;7.076;2022-10-31T07:18:35;8.70;;;5.30;;
15112;SDS011;7657;50.140;7.076;2022-10-31T07:21:02;9.00;;;5.53;;
15112;SDS011;7657;50.140;7.076;2022-10-31T07:23:29;14.63;;;9.02;;
15112;SDS011;7657;50.140;7.076;2022-10-31T07:25:57;18.65;;;11.75;;
15112;SDS011;7657;50.140;7.076;2022-10-31T07:28:26;23.48;;;12.73;;
15112;SDS011;7657;50.140;7.076;2022-10-31T07:30:54;14.48;;;9.88;;
15112;SDS011;7657;50.140;7.076;2022-10-31T07:33:21;18.50;;;11.07;;
15112;SDS011;7657;50.140;7.076;2022-10-31T07:35:50;11.18;;;7.25;;
15112;SDS011;7657;50.140;7.076;2022-10-31T07:38:17;11.50;;;6.63;;
15112;SDS011;7657;50.140;7.076;2022-10-31T07:40:48;9.55;;;4.60;;
15112;SDS011;7657;50.140;7.076;2022-10-31T07:43:16;8.90;;;4.43;;
15112;SDS011;7657;50.140;7.076;2022-10-31T07:45:44;9.10;;;4.55;;
15112;SDS011;7657;50.140;7.076;2022-10-31T07:48:15;8.10;;;4.40;;
15112;SDS011;7657;50.140;7.076;2022-10-31T07:50:42;10.48;;;4.93;;
15112;SDS011;7657;50.140;7.076;2022-10-31T07:53:10;8.70;;;4.57;;
15112;SDS011;7657;50.140;7.076;2022-10-31T07:55:38;6.50;;;3.97;;
15112;SDS011;7657;50.140;7.076;2022-10-31T07:58:06;9.00;;;4.65;;
15112;SDS011;7657;50.140;7.076;2022-10-31T08:00:34;9.05;;;4.40;;
15112;SDS011;7657;50.140;7.076;2022-10-31T08:03:04;6.55;;;4.05;;
15112;SDS011;7657;50.140;7.076;2022-10-31T08:05:32;9.45;;;4.25;;
15112;SDS011;7657;50.140;7.076;2022-10-31T08:08:00;8.63;;;4.40;;
15112;SDS011;7657;50.140;7.076;2022-10-31T08:10:27;10.30;;;4.53;;
15112;SDS011;7657;50.140;7.076;2022-10-31T08:12:55;7.22;;;3.95;;
15112;SDS011;7657;50.140;7.076;2022-10-31T08:15:23;6.30;;;4.15;;
15112;SDS011;7657;50.140;7.076;2022-10-31T08:17:50;7.95;;;4.20;;
15112;SDS011;7657;50.140;7.076;2022-10-31T08:20:18;7.75;;;4.13;;
15112;SDS011;7657;50.140;7.076;2022-10-31T08:22:52;6.85;;;4.43;;
15112;SDS011;7657;50.140;7.076;2022-10-31T08:25:20;8.38;;;4.28;;
15112;SDS011;7657;50.140;7.076;2022-10-31T08:27:48;8.23;;;3.88;;
15112;SDS011;7657;50.140;7.076;2022-10-31T08:30:16;6.97;;;3.95;;
15112;SDS011;7657;50.140;7.076;2022-10-31T08:32:44;8.20;;;4.28;;
15112;SDS011;7657;50.140;7.076;2022-10-31T08:35:10;8.93;;;4.40;;
15112;SDS011;7657;50.140;7.076;2022-10-31T08:37:39;9.52;;;4.45;;
15112;SDS011;7657;50.140;7.076;2022-10-31T08:40:06;8.45;;;4.47;;
15112;SDS011;7657;50.140;7.076;2022-10-31T08:42:34;9.88;;;4.38;;
15112;SDS011;7657;50.140;7.076;2022-10-31T08:45:01;8.35;;;4.43;;
15112;SDS011;7657;50.140;7.076;2022-10-31T08:47:28;10.07;;;5.10;;
15112;SDS011;7657;50.140;7.076;2022-10-31T08:49:55;6.75;;;3.88;;
15112;SDS011;7657;50.140;7.076;2022-10-31T08:52:22;8.63;;;3.83;;
15112;SDS011;7657;50.140;7.076;2022-10-31T08:54:51;8.82;;;4.03;;
15112;SDS011;7657;50.140;7.076;2022-10-31T08:57:18;6.65;;;4.65;;
15112;SDS011;7657;50.140;7.076;2022-10-31T08:59:45;12.05;;;4.65;;
15112;SDS011;7657;50.140;7.076;2022-10-31T09:02:12;9.93;;;4.28;;
15112;SDS011;7657;50.140;7.076;2022-10-31T09:04:39;9.45;;;3.97;;
15112;SDS011;7657;50.140;7.076;2022-10-31T09:07:06;7.97;;;3.92;;
15112;SDS011;7657;50.140;7.076;2022-10-31T09:09:33;7.68;;;4.00;;
15112;SDS011;7657;50.140;7.076;2022-10-31T09:12:01;8.98;;;4.05;;
15112;SDS011;7657;50.140;7.076;2022-10-31T09:14:28;7.43;;;3.85;;
15112;SDS011;7657;50.140;7.076;2022-10-31T09:16:55;7.80;;;3.90;;
15112;SDS011;7657;50.140;7.076;2022-10-31T09:19:21;9.80;;;3.95;;
15112;SDS011;7657;50.140;7.076;2022-10-31T09:21:51;7.85;;;4.05;;
15112;SDS011;7657;50.140;7.076;2022-10-31T09:24:19;9.50;;;3.92;;
15112;SDS011;7657;50.140;7.076;2022-10-31T09:26:45;6.38;;;4.22;;
15112;SDS011;7657;50.140;7.076;2022-10-31T09:29:14;6.50;;;3.50;;
15112;SDS011;7657;50.140;7.076;2022-10-31T09:31:41;7.65;;;4.00;;
15112;SDS011;7657;50.140;7.076;2022-10-31T09:34:07;10.23;;;4.68;;
15112;SDS011;7657;50.140;7.076;2022-10-31T09:36:34;9.27;;;3.83;;
15112;SDS011;7657;50.140;7.076;2022-10-31T09:39:01;9.10;;;4.20;;
15112;SDS011;7657;50.140;7.076;2022-10-31T09:41:32;8.32;;;3.72;;
15112;SDS011;7657;50.140;7.076;2022-10-31T09:44:15;9.18;;;3.53;;
15112;SDS011;7657;50.140;7.076;2022-10-31T09:46:54;9.35;;;3.92;;
15112;SDS011;7657;50.140;7.076;2022-10-31T09:49:29;10.50;;;3.97;;
15112;SDS011;7657;50.140;7.076;2022-10-31T09:52:03;6.65;;;3.65;;
15112;SDS011;7657;50.140;7.076;2022-10-31T09:54:40;6.75;;;3.65;;
15112;SDS011;7657;50.140;7.076;2022-10-31T09:57:10;10.45;;;3.88;;
15112;SDS011;7657;50.140;7.076;2022-10-31T09:59:43;7.82;;;3.72;;
15112;SDS011;7657;50.140;7.076;2022-10-31T10:02:13;11.20;;;3.95;;
15112;SDS011;7657;50.140;7.076;2022-10-31T10:04:47;8.63;;;4.40;;
15112;SDS011;7657;50.140;7.076;2022-10-31T10:07:21;6.82;;;3.33;;
15112;SDS011;7657;50.140;7.076;2022-10-31T10:09:53;7.85;;;3.65;;
15112;SDS011;7657;50.140;7.076;2022-10-31T10:12:23;7.22;;;3.13;;
15112;SDS011;7657;50.140;7.076;2022-10-31T10:15:15;9.40;;;4.10;;
15112;SDS011;7657;50.140;7.076;2022-10-31T10:17:59;5.47;;;3.92;;
15112;SDS011;7657;50.140;7.076;2022-10-31T10:20:31;9.15;;;4.00;;
15112;SDS011;7657;50.140;7.076;2022-10-31T10:23:21;7.95;;;3.80;;
15112;SDS011;7657;50.140;7.076;2022-10-31T10:26:01;8.43;;;4.05;;
15112;SDS011;7657;50.140;7.076;2022-10-31T10:28:36;12.07;;;6.80;;
15112;SDS011;7657;50.140;7.076;2022-10-31T10:31:07;7.93;;;3.53;;
15112;SDS011;7657;50.140;7.076;2022-10-31T10:33:38;7.30;;;4.05;;
15112;SDS011;7657;50.140;7.076;2022-10-31T10:36:08;12.20;;;4.20;;
15112;SDS011;7657;50.140;7.076;2022-10-31T10:38:43;9.45;;;3.47;;
15112;SDS011;7657;50.140;7.076;2022-10-31T10:41:17;8.27;;;3.60;;
15112;SDS011;7657;50.140;7.076;2022-10-31T10:43:44;12.07;;;7.22;;
15112;SDS011;7657;50.140;7.076;2022-10-31T10:46:21;8.52;;;4.07;;
15112;SDS011;7657;50.140;7.076;2022-10-31T10:49:12;7.32;;;3.70;;
15112;SDS011;7657;50.140;7.076;2022-10-31T10:51:44;7.57;;;3.88;;
15112;SDS011;7657;50.140;7.076;2022-10-31T10:54:20;6.53;;;3.67;;
15112;SDS011;7657;50.140;7.076;2022-10-31T10:57:05;14.40;;;8.70;;
15112;SDS011;7657;50.140;7.076;2022-10-31T10:59:38;13.38;;;6.20;;
15112;SDS011;7657;50.140;7.076;2022-10-31T11:02:13;9.18;;;4.22;;
15112;SDS011;7657;50.140;7.076;2022-10-31T11:04:43;5.75;;;3.60;;
15112;SDS011;7657;50.140;7.076;2022-10-31T11:07:13;10.70;;;3.47;;
15112;SDS011;7657;50.140;7.076;2022-10-31T11:09:40;5.93;;;3.55;;
15112;SDS011;7657;50.140;7.076;2022-10-31T11:12:08;4.70;;;3.28;;
15112;SDS011;7657;50.140;7.076;2022-10-31T11:14:42;10.90;;;4.80;;
15112;SDS011;7657;50.140;7.076;2022-10-31T11:17:17;9.57;;;4.43;;
15112;SDS011;7657;50.140;7.076;2022-10-31T11:19:59;10.93;;;5.47;;
15112;SDS011;7657;50.140;7.076;2022-10-31T11:22:27;9.57;;;3.83;;
15112;SDS011;7657;50.140;7.076;2022-10-31T11:24:54;7.30;;;3.75;;
15112;SDS011;7657;50.140;7.076;2022-10-31T11:27:21;10.32;;;5.50;;
15112;SDS011;7657;50.140;7.076;2022-10-31T11:29:49;9.32;;;4.20;;
15112;SDS011;7657;50.140;7.076;2022-10-31T11:32:21;14.02;;;7.28;;
15112;SDS011;7657;50.140;7.076;2022-10-31T11:34:51;9.73;;;4.88;;
15112;SDS011;7657;50.140;7.076;2022-10-31T11:37:22;8.52;;;3.92;;
15112;SDS011;7657;50.140;7.076;2022-10-31T11:39:52;8.88;;;4.20;;
15112;SDS011;7657;50.140;7.076;2022-10-31T11:42:21;12.65;;;6.32;;
15112;SDS011;7657;50.140;7.076;2022-10-31T11:44:49;10.60;;;4.05;;
15112;SDS011;7657;50.140;7.076;2022-10-31T11:47:18;9.77;;;4.18;;
15112;SDS011;7657;50.140;7.076;2022-10-31T11:49:52;18.17;;;7.43;;
15112;SDS011;7657;50.140;7.076;2022-10-31T11:52:20;11.77;;;4.45;;
15112;SDS011;7657;50.140;7.076;2022-10-31T11:54:51;21.13;;;9.52;;
15112;SDS011;7657;50.140;7.076;2022-10-31T11:57:24;19.35;;;8.23;;
15112;SDS011;7657;50.140;7.076;2022-10-31T11:59:53;18.50;;;8.55;;
15112;SDS011;7657;50.140;7.076;2022-10-31T12:02:21;32.47;;;14.50;;
15112;SDS011;7657;50.140;7.076;2022-10-31T12:04:51;17.48;;;8.95;;
15112;SDS011;7657;50.140;7.076;2022-10-31T12:07:24;20.52;;;9.57;;
15112;SDS011;7657;50.140;7.076;2022-10-31T12:09:51;20.58;;;14.07;;
15112;SDS011;7657;50.140;7.076;2022-10-31T12:12:22;15.02;;;7.55;;
15112;SDS011;7657;50.140;7.076;2022-10-31T12:15:04;12.50;;;6.32;;
15112;SDS011;7657;50.140;7.076;2022-10-31T12:17:44;8.57;;;5.10;;
15112;SDS011;7657;50.140;7.076;2022-10-31T12:20:19;8.45;;;3.97;;
15112;SDS011;7657;50.140;7.076;2022-10-31T12:22:52;11.48;;;6.13;;
15112;SDS011;7657;50.140;7.076;2022-10-31T12:25:29;16.25;;;5.70;;
15112;SDS011;7657;50.140;7.076;2022-10-31T12:31:12;10.75;;;5.22;;
15112;SDS011;7657;50.140;7.076;2022-10-31T12:33:53;7.20;;;3.50;;
15112;SDS011;7657;50.140;7.076;2022-10-31T12:36:29;10.98;;;4.95;;
15112;SDS011;7657;50.140;7.076;2022-10-31T12:42:00;6.70;;;3.47;;
15112;SDS011;7657;50.140;7.076;2022-10-31T12:44:37;12.57;;;5.32;;
15112;SDS011;7657;50.140;7.076;2022-10-31T12:53:23;8.45;;;5.15;;
15112;SDS011;7657;50.140;7.076;2022-10-31T12:56:02;6.40;;;3.22;;
15112;SDS011;7657;50.140;7.076;2022-10-31T12:58:40;8.07;;;4.28;;
15112;SDS011;7657;50.140;7.076;2022-10-31T13:01:12;7.82;;;3.40;;
15112;SDS011;7657;50.140;7.076;2022-10-31T13:03:45;8.05;;;4.53;;
15112;SDS011;7657;50.140;7.076;2022-10-31T13:06:19;9.40;;;4.15;;
15112;SDS011;7657;50.140;7.076;2022-10-31T13:08:49;10.32;;;3.67;;
15112;SDS011;7657;50.140;7.076;2022-10-31T13:11:21;6.97;;;3.65;;
15112;SDS011;7657;50.140;7.076;2022-10-31T13:13:54;8.48;;;3.88;;
15112;SDS011;7657;50.140;7.076;2022-10-31T13:16:28;8.23;;;4.00;;
15112;SDS011;7657;50.140;7.076;2022-10-31T13:19:00;6.18;;;3.72;;
15112;SDS011;7657;50.140;7.076;2022-10-31T13:21:33;10.27;;;4.60;;
15112;SDS011;7657;50.140;7.076;2022-10-31T13:24:04;11.88;;;5.78;;
15112;SDS011;7657;50.140;7.076;2022-10-31T13:26:40;8.35;;;4.32;;
15112;SDS011;7657;50.140;7.076;2022-10-31T13:29:14;6.93;;;4.63;;
15112;SDS011;7657;50.140;7.076;2022-10-31T13:31:46;7.57;;;3.60;;
15112;SDS011;7657;50.140;7.076;2022-10-31T13:34:21;8.45;;;4.53;;
15112;SDS011;7657;50.140;7.076;2022-10-31T13:36:55;8.55;;;3.72;;
15112;SDS011;7657;50.140;7.076;2022-10-31T13:39:38;9.23;;;4.53;;
15112;SDS011;7657;50.140;7.076;2022-10-31T13:42:15;7.22;;;3.70;;
15112;SDS011;7657;50.140;7.076;2022-10-31T13:44:48;16.73;;;6.63;;
15112;SDS011;7657;50.140;7.076;2022-10-31T13:47:22;10.35;;;4.72;;
15112;SDS011;7657;50.140;7.076;2022-10-31T13:49:50;15.43;;;6.78;;
15112;SDS011;7657;50.140;7.076;2022-10-31T13:52:24;14.77;;;6.32;;
15112;SDS011;7657;50.140;7.076;2022-10-31T13:54:52;10.00;;;4.88;;
15112;SDS011;7657;50.140;7.076;2022-10-31T13:57:28;7.88;;;4.10;;
15112;SDS011;7657;50.140;7.076;2022-10-31T13:59:58;8.57;;;3.67;;
15112;SDS011;7657;50.140;7.076;2022-10-31T14:02:28;11.05;;;4.28;;
15112;SDS011;7657;50.140;7.076;2022-10-31T14:04:57;11.18;;;4.88;;
15112;SDS011;7657;50.140;7.076;2022-10-31T14:07:27;6.13;;;4.45;;
15112;SDS011;7657;50.140;7.076;2022-10-31T14:09:56;9.55;;;4.82;;
15112;SDS011;7657;50.140;7.076;2022-10-31T14:12:27;5.63;;;3.53;;
15112;SDS011;7657;50.140;7.076;2022-10-31T14:14:58;9.65;;;4.10;;
15112;SDS011;7657;50.140;7.076;2022-10-31T14:17:31;6.03;;;3.92;;
15112;SDS011;7657;50.140;7.076;2022-10-31T14:20:25;6.43;;;3.33;;
15112;SDS011;7657;50.140;7.076;2022-10-31T14:23:11;16.88;;;6.97;;
15112;SDS011;7657;50.140;7.076;2022-10-31T14:26:05;20.17;;;9.13;;
15112;SDS011;7657;50.140;7.076;2022-10-31T14:28:43;11.65;;;5.47;;
15112;SDS011;7657;50.140;7.076;2022-10-31T14:31:24;10.45;;;5.45;;
15112;SDS011;7657;50.140;7.076;2022-10-31T14:34:00;15.35;;;8.60;;
15112;SDS011;7657;50.140;7.076;2022-10-31T14:36:33;10.73;;;5.90;;
15112;SDS011;7657;50.140;7.076;2022-10-31T14:39:13;20.63;;;10.90;;
15112;SDS011;7657;50.140;7.076;2022-10-31T14:41:48;10.50;;;5.70;;
15112;SDS011;7657;50.140;7.076;2022-10-31T14:47:39;6.35;;;3.70;;
15112;SDS011;7657;50.140;7.076;2022-10-31T14:50:25;11.40;;;3.00;;
15112;SDS011;7657;50.140;7.076;2022-10-31T14:53:02;7.85;;;4.53;;
15112;SDS011;7657;50.140;7.076;2022-10-31T14:55:33;13.15;;;7.60;;
15112;SDS011;7657;50.140;7.076;2022-10-31T14:58:13;10.07;;;4.32;;
15112;SDS011;7657;50.140;7.076;2022-10-31T15:00:45;6.30;;;3.72;;
15112;SDS011;7657;50.140;7.076;2022-10-31T15:03:14;6.68;;;3.80;;
15112;SDS011;7657;50.140;7.076;2022-10-31T15:05:44;6.22;;;3.50;;
15112;SDS011;7657;50.140;7.076;2022-10-31T15:08:31;6.32;;;3.90;;
15112;SDS011;7657;50.140;7.076;2022-10-31T15:11:06;7.57;;;4.35;;
15112;SDS011;7657;50.140;7.076;2022-10-31T15:13:40;7.63;;;4.32;;
15112;SDS011;7657;50.140;7.076;2022-10-31T15:16:09;7.22;;;4.63;;
15112;SDS011;7657;50.140;7.076;2022-10-31T15:18:38;6.32;;;3.50;;
15112;SDS011;7657;50.140;7.076;2022-10-31T15:21:14;10.40;;;3.90;;
15112;SDS011;7657;50.140;7.076;2022-10-31T15:23:42;7.15;;;3.50;;
15112;SDS011;7657;50.140;7.076;2022-10-31T15:26:14;7.70;;;4.07;;
15112;SDS011;7657;50.140;7.076;2022-10-31T15:28:44;7.63;;;3.60;;
15112;SDS011;7657;50.140;7.076;2022-10-31T15:31:15;6.85;;;3.58;;
15112;SDS011;7657;50.140;7.076;2022-10-31T15:33:46;6.35;;;3.67;;